Terminal Aerodrome Forecast
Issued by NWS

Home | Current Version | Previous Version | Text Only | Print | Product List | Glossary On
Versions: 1 2 3 4 5 6 7 8 9 10 11 12 13 14 15 16 17 18 19 20 21 22
000
FTUS45 KTFX 301731
TAFCTB
TAF
KCTB 301731Z 3018/3118 VRB06KT P6SM SCT045 BKN100
     FM302100 24007KT P6SM SCT040 OVC090
      TEMPO 3021/3101 VRB20G30KT -SHRA OVC045
     FM310200 21006KT P6SM SKC
     FM311000 23006KT P6SM BKN200
     FM311700 25012KT P6SM SCT050 BKN200=

USA.gov is the U.S. government's official web portal to all federal, state and local government web resources and services.